sensor_id;sensor_type;location;lat;lon;timestamp;temperature;humidity
4312;DHT22;2169;49.086;9.284;2024-03-08T00:00:33;5.50;60.40
4312;DHT22;2169;49.086;9.284;2024-03-08T00:03:02;5.50;60.50
4312;DHT22;2169;49.086;9.284;2024-03-08T00:05:30;5.50;60.50
4312;DHT22;2169;49.086;9.284;2024-03-08T00:07:57;5.50;60.50
4312;DHT22;2169;49.086;9.284;2024-03-08T00:10:25;5.50;60.60
4312;DHT22;2169;49.086;9.284;2024-03-08T00:12:54;5.40;60.50
4312;DHT22;2169;49.086;9.284;2024-03-08T00:15:23;5.40;60.60
4312;DHT22;2169;49.086;9.284;2024-03-08T00:17:50;5.30;60.60
4312;DHT22;2169;49.086;9.284;2024-03-08T00:20:18;5.30;60.70
4312;DHT22;2169;49.086;9.284;2024-03-08T00:22:45;5.30;60.80
4312;DHT22;2169;49.086;9.284;2024-03-08T00:25:12;5.30;60.80
4312;DHT22;2169;49.086;9.284;2024-03-08T00:27:39;5.20;60.80
4312;DHT22;2169;49.086;9.284;2024-03-08T00:30:07;5.20;60.80
4312;DHT22;2169;49.086;9.284;2024-03-08T00:32:34;5.20;60.80
4312;DHT22;2169;49.086;9.284;2024-03-08T00:35:02;5.20;60.80
4312;DHT22;2169;49.086;9.284;2024-03-08T00:37:30;5.20;60.90
4312;DHT22;2169;49.086;9.284;2024-03-08T00:40:00;5.20;60.90
4312;DHT22;2169;49.086;9.284;2024-03-08T00:42:26;5.10;60.80
4312;DHT22;2169;49.086;9.284;2024-03-08T00:44:53;5.10;60.90
4312;DHT22;2169;49.086;9.284;2024-03-08T00:47:20;5.00;60.90
4312;DHT22;2169;49.086;9.284;2024-03-08T00:49:47;5.00;61.00
4312;DHT22;2169;49.086;9.284;2024-03-08T00:52:14;5.00;61.00
4312;DHT22;2169;49.086;9.284;2024-03-08T00:54:45;5.00;61.00
4312;DHT22;2169;49.086;9.284;2024-03-08T00:57:12;4.90;60.90
4312;DHT22;2169;49.086;9.284;2024-03-08T00:59:39;4.90;61.00
4312;DHT22;2169;49.086;9.284;2024-03-08T01:02:05;4.90;61.00
4312;DHT22;2169;49.086;9.284;2024-03-08T01:04:34;4.80;61.00
4312;DHT22;2169;49.086;9.284;2024-03-08T01:07:01;4.80;61.00
4312;DHT22;2169;49.086;9.284;2024-03-08T01:09:28;4.80;61.20
4312;DHT22;2169;49.086;9.284;2024-03-08T01:11:57;4.70;61.10
4312;DHT22;2169;49.086;9.284;2024-03-08T01:14:24;4.70;61.10
4312;DHT22;2169;49.086;9.284;2024-03-08T01:16:52;4.70;61.30
4312;DHT22;2169;49.086;9.284;2024-03-08T01:19:20;4.70;61.30
4312;DHT22;2169;49.086;9.284;2024-03-08T01:21:47;4.70;61.30
4312;DHT22;2169;49.086;9.284;2024-03-08T01:24:14;4.60;61.20
4312;DHT22;2169;49.086;9.284;2024-03-08T01:26:41;4.60;61.20
4312;DHT22;2169;49.086;9.284;2024-03-08T01:29:10;4.50;61.30
4312;DHT22;2169;49.086;9.284;2024-03-08T01:31:37;4.50;61.30
4312;DHT22;2169;49.086;9.284;2024-03-08T01:34:04;4.50;61.30
4312;DHT22;2169;49.086;9.284;2024-03-08T01:36:31;4.50;61.40
4312;DHT22;2169;49.086;9.284;2024-03-08T01:38:58;4.50;61.40
4312;DHT22;2169;49.086;9.284;2024-03-08T01:41:25;4.40;61.30
4312;DHT22;2169;49.086;9.284;2024-03-08T01:43:55;4.40;61.30
4312;DHT22;2169;49.086;9.284;2024-03-08T01:46:23;4.40;61.40
4312;DHT22;2169;49.086;9.284;2024-03-08T01:48:50;4.30;61.40
4312;DHT22;2169;49.086;9.284;2024-03-08T01:51:18;4.30;61.40
4312;DHT22;2169;49.086;9.284;2024-03-08T01:53:47;4.30;61.50
4312;DHT22;2169;49.086;9.284;2024-03-08T01:56:14;4.30;61.60
4312;DHT22;2169;49.086;9.284;2024-03-08T01:58:41;4.30;61.60
4312;DHT22;2169;49.086;9.284;2024-03-08T02:01:11;4.30;61.60
4312;DHT22;2169;49.086;9.284;2024-03-08T02:03:41;4.20;61.60
4312;DHT22;2169;49.086;9.284;2024-03-08T02:06:09;4.20;61.60
4312;DHT22;2169;49.086;9.284;2024-03-08T02:08:36;4.20;61.60
4312;DHT22;2169;49.086;9.284;2024-03-08T02:11:04;4.20;61.60
4312;DHT22;2169;49.086;9.284;2024-03-08T02:13:31;4.20;61.60
4312;DHT22;2169;49.086;9.284;2024-03-08T02:16:00;4.10;61.60
4312;DHT22;2169;49.086;9.284;2024-03-08T02:18:29;4.10;61.70
4312;DHT22;2169;49.086;9.284;2024-03-08T02:20:58;4.10;61.80
4312;DHT22;2169;49.086;9.284;2024-03-08T02:23:26;4.10;61.80
4312;DHT22;2169;49.086;9.284;2024-03-08T02:25:54;4.10;61.80
4312;DHT22;2169;49.086;9.284;2024-03-08T02:28:22;4.10;61.90
4312;DHT22;2169;49.086;9.284;2024-03-08T02:30:49;4.10;61.90
4312;DHT22;2169;49.086;9.284;2024-03-08T02:33:20;4.10;62.00
4312;DHT22;2169;49.086;9.284;2024-03-08T02:35:47;4.10;62.00
4312;DHT22;2169;49.086;9.284;2024-03-08T02:38:17;4.10;62.00
4312;DHT22;2169;49.086;9.284;2024-03-08T02:40:44;4.10;62.00
4312;DHT22;2169;49.086;9.284;2024-03-08T02:43:12;4.10;62.10
4312;DHT22;2169;49.086;9.284;2024-03-08T02:45:40;4.00;61.90
4312;DHT22;2169;49.086;9.284;2024-03-08T02:48:07;4.00;61.90
4312;DHT22;2169;49.086;9.284;2024-03-08T02:50:35;4.00;61.90
4312;DHT22;2169;49.086;9.284;2024-03-08T02:53:02;4.00;62.00
4312;DHT22;2169;49.086;9.284;2024-03-08T02:55:30;4.00;62.70
4312;DHT22;2169;49.086;9.284;2024-03-08T02:57:59;3.90;62.00
4312;DHT22;2169;49.086;9.284;2024-03-08T03:00:25;3.90;62.00
4312;DHT22;2169;49.086;9.284;2024-03-08T03:02:52;3.90;62.00
4312;DHT22;2169;49.086;9.284;2024-03-08T03:05:20;3.90;62.00
4312;DHT22;2169;49.086;9.284;2024-03-08T03:07:47;3.90;62.00
4312;DHT22;2169;49.086;9.284;2024-03-08T03:10:14;3.80;62.00
4312;DHT22;2169;49.086;9.284;2024-03-08T03:12:45;3.80;62.00
4312;DHT22;2169;49.086;9.284;2024-03-08T03:15:14;3.80;62.20
4312;DHT22;2169;49.086;9.284;2024-03-08T03:17:45;3.80;62.20
4312;DHT22;2169;49.086;9.284;2024-03-08T03:20:13;3.80;62.20
4312;DHT22;2169;49.086;9.284;2024-03-08T03:22:48;3.80;62.20
4312;DHT22;2169;49.086;9.284;2024-03-08T03:25:18;3.80;62.30
4312;DHT22;2169;49.086;9.284;2024-03-08T03:27:52;3.80;62.30
4312;DHT22;2169;49.086;9.284;2024-03-08T03:30:22;3.80;62.30
4312;DHT22;2169;49.086;9.284;2024-03-08T03:32:49;3.70;62.30
4312;DHT22;2169;49.086;9.284;2024-03-08T03:35:17;3.70;62.30
4312;DHT22;2169;49.086;9.284;2024-03-08T03:37:44;3.70;62.40
4312;DHT22;2169;49.086;9.284;2024-03-08T03:40:17;3.70;62.40
4312;DHT22;2169;49.086;9.284;2024-03-08T03:42:45;3.70;62.50
4312;DHT22;2169;49.086;9.284;2024-03-08T03:45:14;3.80;62.60
4312;DHT22;2169;49.086;9.284;2024-03-08T03:47:45;3.70;62.50
4312;DHT22;2169;49.086;9.284;2024-03-08T03:50:12;3.80;62.60
4312;DHT22;2169;49.086;9.284;2024-03-08T03:52:39;3.70;62.60
4312;DHT22;2169;49.086;9.284;2024-03-08T03:55:08;3.70;62.60
4312;DHT22;2169;49.086;9.284;2024-03-08T03:57:37;3.70;62.60
4312;DHT22;2169;49.086;9.284;2024-03-08T04:00:05;3.70;62.60
4312;DHT22;2169;49.086;9.284;2024-03-08T04:02:37;3.70;62.60
4312;DHT22;2169;49.086;9.284;2024-03-08T04:05:05;3.70;62.60
4312;DHT22;2169;49.086;9.284;2024-03-08T04:07:32;3.70;62.70
4312;DHT22;2169;49.086;9.284;2024-03-08T04:09:59;3.70;62.70
4312;DHT22;2169;49.086;9.284;2024-03-08T04:12:26;3.60;63.30
4312;DHT22;2169;49.086;9.284;2024-03-08T04:14:54;3.60;62.60
4312;DHT22;2169;49.086;9.284;2024-03-08T04:17:22;3.60;62.60
4312;DHT22;2169;49.086;9.284;2024-03-08T04:19:51;3.60;62.60
4312;DHT22;2169;49.086;9.284;2024-03-08T04:22:18;3.60;62.60
4312;DHT22;2169;49.086;9.284;2024-03-08T04:24:45;3.60;62.70
4312;DHT22;2169;49.086;9.284;2024-03-08T04:27:12;3.50;62.60
4312;DHT22;2169;49.086;9.284;2024-03-08T04:29:39;3.50;62.60
4312;DHT22;2169;49.086;9.284;2024-03-08T04:32:07;3.50;62.60
4312;DHT22;2169;49.086;9.284;2024-03-08T04:34:34;3.50;62.70
4312;DHT22;2169;49.086;9.284;2024-03-08T04:37:03;3.50;62.70
4312;DHT22;2169;49.086;9.284;2024-03-08T04:39:30;3.50;62.80
4312;DHT22;2169;49.086;9.284;2024-03-08T04:42:01;3.40;62.70
4312;DHT22;2169;49.086;9.284;2024-03-08T04:44:29;3.40;62.80
4312;DHT22;2169;49.086;9.284;2024-03-08T04:46:57;3.40;62.80
4312;DHT22;2169;49.086;9.284;2024-03-08T04:49:24;3.30;62.80
4312;DHT22;2169;49.086;9.284;2024-03-08T04:51:51;3.30;62.80
4312;DHT22;2169;49.086;9.284;2024-03-08T04:54:19;3.30;62.80
4312;DHT22;2169;49.086;9.284;2024-03-08T04:56:46;3.30;62.90
4312;DHT22;2169;49.086;9.284;2024-03-08T04:59:13;3.20;62.80
4312;DHT22;2169;49.086;9.284;2024-03-08T05:01:40;3.20;62.90
4312;DHT22;2169;49.086;9.284;2024-03-08T05:04:07;3.20;62.90
4312;DHT22;2169;49.086;9.284;2024-03-08T05:06:34;3.20;63.00
4312;DHT22;2169;49.086;9.284;2024-03-08T05:09:01;3.20;63.00
4312;DHT22;2169;49.086;9.284;2024-03-08T05:11:40;3.10;63.00
4312;DHT22;2169;49.086;9.284;2024-03-08T05:14:08;3.10;63.10
4312;DHT22;2169;49.086;9.284;2024-03-08T05:16:35;3.10;63.10
4312;DHT22;2169;49.086;9.284;2024-03-08T05:19:02;3.10;63.20
4312;DHT22;2169;49.086;9.284;2024-03-08T05:21:28;3.10;63.20
4312;DHT22;2169;49.086;9.284;2024-03-08T05:23:55;3.10;63.30
4312;DHT22;2169;49.086;9.284;2024-03-08T05:26:22;3.10;63.30
4312;DHT22;2169;49.086;9.284;2024-03-08T05:29:07;3.10;63.30
4312;DHT22;2169;49.086;9.284;2024-03-08T05:31:50;3.00;63.30
4312;DHT22;2169;49.086;9.284;2024-03-08T05:34:18;3.00;63.30
4312;DHT22;2169;49.086;9.284;2024-03-08T05:36:45;3.00;63.40
4312;DHT22;2169;49.086;9.284;2024-03-08T05:39:12;2.90;63.30
4312;DHT22;2169;49.086;9.284;2024-03-08T05:41:39;2.90;63.30
4312;DHT22;2169;49.086;9.284;2024-03-08T05:44:08;3.00;63.70
4312;DHT22;2169;49.086;9.284;2024-03-08T05:46:35;2.90;63.50
4312;DHT22;2169;49.086;9.284;2024-03-08T05:49:02;2.90;63.60
4312;DHT22;2169;49.086;9.284;2024-03-08T05:51:31;2.90;63.60
4312;DHT22;2169;49.086;9.284;2024-03-08T05:54:00;2.90;63.60
4312;DHT22;2169;49.086;9.284;2024-03-08T05:56:28;2.80;63.60
4312;DHT22;2169;49.086;9.284;2024-03-08T05:58:55;2.80;63.50
4312;DHT22;2169;49.086;9.284;2024-03-08T06:01:23;2.70;63.50
4312;DHT22;2169;49.086;9.284;2024-03-08T06:03:50;2.70;63.60
4312;DHT22;2169;49.086;9.284;2024-03-08T06:06:17;2.70;63.70
4312;DHT22;2169;49.086;9.284;2024-03-08T06:08:44;2.60;63.70
4312;DHT22;2169;49.086;9.284;2024-03-08T06:11:12;2.60;63.70
4312;DHT22;2169;49.086;9.284;2024-03-08T06:13:40;2.60;63.80
4312;DHT22;2169;49.086;9.284;2024-03-08T06:16:07;2.60;63.90
4312;DHT22;2169;49.086;9.284;2024-03-08T06:18:36;2.60;63.90
4312;DHT22;2169;49.086;9.284;2024-03-08T06:21:03;2.70;64.10
4312;DHT22;2169;49.086;9.284;2024-03-08T06:23:30;2.70;64.10
4312;DHT22;2169;49.086;9.284;2024-03-08T06:25:57;2.70;64.10
4312;DHT22;2169;49.086;9.284;2024-03-08T06:28:24;2.70;64.20
4312;DHT22;2169;49.086;9.284;2024-03-08T06:30:51;2.70;64.20
4312;DHT22;2169;49.086;9.284;2024-03-08T06:33:18;2.70;64.20
4312;DHT22;2169;49.086;9.284;2024-03-08T06:35:47;2.80;64.30
4312;DHT22;2169;49.086;9.284;2024-03-08T06:38:13;2.80;64.30
4312;DHT22;2169;49.086;9.284;2024-03-08T06:40:42;2.80;64.40
4312;DHT22;2169;49.086;9.284;2024-03-08T06:43:09;2.80;64.50
4312;DHT22;2169;49.086;9.284;2024-03-08T06:45:40;2.80;64.60
4312;DHT22;2169;49.086;9.284;2024-03-08T06:48:07;2.80;64.60
4312;DHT22;2169;49.086;9.284;2024-03-08T06:50:35;2.80;64.70
4312;DHT22;2169;49.086;9.284;2024-03-08T06:53:04;2.80;64.70
4312;DHT22;2169;49.086;9.284;2024-03-08T06:55:31;2.80;64.80
4312;DHT22;2169;49.086;9.284;2024-03-08T06:57:58;2.90;64.80
4312;DHT22;2169;49.086;9.284;2024-03-08T07:00:25;2.90;64.90
4312;DHT22;2169;49.086;9.284;2024-03-08T07:02:54;2.90;64.90
4312;DHT22;2169;49.086;9.284;2024-03-08T07:05:21;3.00;65.00
4312;DHT22;2169;49.086;9.284;2024-03-08T07:07:48;3.00;65.00
4312;DHT22;2169;49.086;9.284;2024-03-08T07:10:17;3.00;65.00
4312;DHT22;2169;49.086;9.284;2024-03-08T07:12:44;3.10;65.10
4312;DHT22;2169;49.086;9.284;2024-03-08T07:15:12;3.10;65.10
4312;DHT22;2169;49.086;9.284;2024-03-08T07:17:41;3.20;65.20
4312;DHT22;2169;49.086;9.284;2024-03-08T07:20:10;3.20;65.20
4312;DHT22;2169;49.086;9.284;2024-03-08T07:22:39;3.20;65.20
4312;DHT22;2169;49.086;9.284;2024-03-08T07:25:06;3.30;65.30
4312;DHT22;2169;49.086;9.284;2024-03-08T07:27:47;3.30;65.30
4312;DHT22;2169;49.086;9.284;2024-03-08T07:30:14;3.30;65.30
4312;DHT22;2169;49.086;9.284;2024-03-08T07:33:03;3.40;65.40
4312;DHT22;2169;49.086;9.284;2024-03-08T07:35:30;3.40;65.40
4312;DHT22;2169;49.086;9.284;2024-03-08T07:37:57;3.50;65.50
4312;DHT22;2169;49.086;9.284;2024-03-08T07:40:25;3.50;65.50
4312;DHT22;2169;49.086;9.284;2024-03-08T07:42:53;3.60;65.60
4312;DHT22;2169;49.086;9.284;2024-03-08T07:45:20;3.60;65.50
4312;DHT22;2169;49.086;9.284;2024-03-08T07:47:48;3.70;65.60
4312;DHT22;2169;49.086;9.284;2024-03-08T07:50:16;3.70;65.60
4312;DHT22;2169;49.086;9.284;2024-03-08T07:52:45;3.70;65.50
4312;DHT22;2169;49.086;9.284;2024-03-08T07:55:11;3.80;65.60
4312;DHT22;2169;49.086;9.284;2024-03-08T07:57:38;3.80;65.60
4312;DHT22;2169;49.086;9.284;2024-03-08T08:00:07;3.90;65.70
4312;DHT22;2169;49.086;9.284;2024-03-08T08:02:36;4.00;65.70
4312;DHT22;2169;49.086;9.284;2024-03-08T08:05:04;4.00;65.70
4312;DHT22;2169;49.086;9.284;2024-03-08T08:07:31;4.10;65.70
4312;DHT22;2169;49.086;9.284;2024-03-08T08:09:58;4.10;65.60
4312;DHT22;2169;49.086;9.284;2024-03-08T08:12:25;4.20;65.60
4312;DHT22;2169;49.086;9.284;2024-03-08T08:14:53;4.20;65.60
4312;DHT22;2169;49.086;9.284;2024-03-08T08:17:23;4.30;65.60
4312;DHT22;2169;49.086;9.284;2024-03-08T08:19:50;4.40;65.70
4312;DHT22;2169;49.086;9.284;2024-03-08T08:22:17;4.40;65.60
4312;DHT22;2169;49.086;9.284;2024-03-08T08:24:45;4.40;65.60
4312;DHT22;2169;49.086;9.284;2024-03-08T08:27:12;4.50;65.60
4312;DHT22;2169;49.086;9.284;2024-03-08T08:29:40;4.60;65.60
4312;DHT22;2169;49.086;9.284;2024-03-08T08:32:07;4.60;65.60
4312;DHT22;2169;49.086;9.284;2024-03-08T08:34:35;4.70;65.60
4312;DHT22;2169;49.086;9.284;2024-03-08T08:37:02;4.70;65.60
4312;DHT22;2169;49.086;9.284;2024-03-08T08:39:28;4.80;65.60
4312;DHT22;2169;49.086;9.284;2024-03-08T08:41:55;4.90;65.60
4312;DHT22;2169;49.086;9.284;2024-03-08T08:44:23;4.90;65.50
4312;DHT22;2169;49.086;9.284;2024-03-08T08:46:51;5.00;65.50
4312;DHT22;2169;49.086;9.284;2024-03-08T08:49:19;5.00;65.40
4312;DHT22;2169;49.086;9.284;2024-03-08T08:51:50;5.10;65.50
4312;DHT22;2169;49.086;9.284;2024-03-08T08:54:17;5.10;65.40
4312;DHT22;2169;49.086;9.284;2024-03-08T08:56:44;5.20;65.40
4312;DHT22;2169;49.086;9.284;2024-03-08T08:59:11;5.20;65.30
4312;DHT22;2169;49.086;9.284;2024-03-08T09:01:44;5.30;65.20
4312;DHT22;2169;49.086;9.284;2024-03-08T09:04:12;5.30;65.10
4312;DHT22;2169;49.086;9.284;2024-03-08T09:06:39;5.30;64.80
4312;DHT22;2169;49.086;9.284;2024-03-08T09:09:08;5.40;64.80
4312;DHT22;2169;49.086;9.284;2024-03-08T09:11:36;5.40;64.70
4312;DHT22;2169;49.086;9.284;2024-03-08T09:14:07;5.40;64.60
4312;DHT22;2169;49.086;9.284;2024-03-08T09:16:34;5.40;64.60
4312;DHT22;2169;49.086;9.284;2024-03-08T09:19:02;5.50;64.50
4312;DHT22;2169;49.086;9.284;2024-03-08T09:21:29;5.60;64.50
4312;DHT22;2169;49.086;9.284;2024-03-08T09:23:57;5.60;64.40
4312;DHT22;2169;49.086;9.284;2024-03-08T09:26:25;5.60;64.30
4312;DHT22;2169;49.086;9.284;2024-03-08T09:28:52;5.70;64.90
4312;DHT22;2169;49.086;9.284;2024-03-08T09:31:20;5.80;64.20
4312;DHT22;2169;49.086;9.284;2024-03-08T09:33:47;5.80;64.10
4312;DHT22;2169;49.086;9.284;2024-03-08T09:36:14;5.90;64.10
4312;DHT22;2169;49.086;9.284;2024-03-08T09:38:41;5.90;64.10
4312;DHT22;2169;49.086;9.284;2024-03-08T09:41:08;6.00;64.10
4312;DHT22;2169;49.086;9.284;2024-03-08T09:43:37;6.00;64.10
4312;DHT22;2169;49.086;9.284;2024-03-08T09:46:05;6.10;64.10
4312;DHT22;2169;49.086;9.284;2024-03-08T09:48:33;6.20;64.60
4312;DHT22;2169;49.086;9.284;2024-03-08T09:51:00;6.30;63.90
4312;DHT22;2169;49.086;9.284;2024-03-08T09:53:28;6.30;63.70
4312;DHT22;2169;49.086;9.284;2024-03-08T09:55:55;6.40;63.70
4312;DHT22;2169;49.086;9.284;2024-03-08T09:58:22;6.40;63.60
4312;DHT22;2169;49.086;9.284;2024-03-08T10:01:05;6.50;63.50
4312;DHT22;2169;49.086;9.284;2024-03-08T10:03:32;6.50;63.20
4312;DHT22;2169;49.086;9.284;2024-03-08T10:06:00;6.60;63.20
4312;DHT22;2169;49.086;9.284;2024-03-08T10:08:27;6.60;63.20
4312;DHT22;2169;49.086;9.284;2024-03-08T10:10:55;6.70;63.20
4312;DHT22;2169;49.086;9.284;2024-03-08T10:13:24;6.80;63.10
4312;DHT22;2169;49.086;9.284;2024-03-08T10:15:52;6.80;63.00
4312;DHT22;2169;49.086;9.284;2024-03-08T10:18:20;6.90;62.90
4312;DHT22;2169;49.086;9.284;2024-03-08T10:21:02;7.00;62.90
4312;DHT22;2169;49.086;9.284;2024-03-08T10:23:30;7.00;63.20
4312;DHT22;2169;49.086;9.284;2024-03-08T10:25:57;7.10;62.60
4312;DHT22;2169;49.086;9.284;2024-03-08T10:28:24;7.20;62.40
4312;DHT22;2169;49.086;9.284;2024-03-08T10:30:51;7.30;62.40
4312;DHT22;2169;49.086;9.284;2024-03-08T10:33:20;7.40;62.40
4312;DHT22;2169;49.086;9.284;2024-03-08T10:35:50;7.50;62.30
4312;DHT22;2169;49.086;9.284;2024-03-08T10:38:20;7.50;61.90
4312;DHT22;2169;49.086;9.284;2024-03-08T10:40:48;7.60;61.90
4312;DHT22;2169;49.086;9.284;2024-03-08T10:43:23;7.70;62.00
4312;DHT22;2169;49.086;9.284;2024-03-08T10:45:59;7.80;61.80
4312;DHT22;2169;49.086;9.284;2024-03-08T10:48:32;7.90;61.70
4312;DHT22;2169;49.086;9.284;2024-03-08T10:51:05;8.00;61.70
4312;DHT22;2169;49.086;9.284;2024-03-08T10:53:34;8.10;61.50
4312;DHT22;2169;49.086;9.284;2024-03-08T10:56:02;8.10;61.90
4312;DHT22;2169;49.086;9.284;2024-03-08T10:58:30;8.20;60.90
4312;DHT22;2169;49.086;9.284;2024-03-08T11:00:58;8.30;61.00
4312;DHT22;2169;49.086;9.284;2024-03-08T11:03:45;8.30;60.70
4312;DHT22;2169;49.086;9.284;2024-03-08T11:06:15;8.40;60.60
4312;DHT22;2169;49.086;9.284;2024-03-08T11:08:44;8.50;60.80
4312;DHT22;2169;49.086;9.284;2024-03-08T11:11:25;8.60;60.70
4312;DHT22;2169;49.086;9.284;2024-03-08T11:13:57;8.70;61.10
4312;DHT22;2169;49.086;9.284;2024-03-08T11:16:38;8.80;60.30
4312;DHT22;2169;49.086;9.284;2024-03-08T11:19:24;8.90;60.20
4312;DHT22;2169;49.086;9.284;2024-03-08T11:22:01;9.00;60.20
4312;DHT22;2169;49.086;9.284;2024-03-08T11:24:37;9.00;59.80
4312;DHT22;2169;49.086;9.284;2024-03-08T11:27:05;9.10;59.70
4312;DHT22;2169;49.086;9.284;2024-03-08T11:29:36;9.10;59.50
4312;DHT22;2169;49.086;9.284;2024-03-08T11:32:07;9.20;59.30
4312;DHT22;2169;49.086;9.284;2024-03-08T11:34:36;9.30;59.30
4312;DHT22;2169;49.086;9.284;2024-03-08T11:37:04;9.30;59.20
4312;DHT22;2169;49.086;9.284;2024-03-08T11:39:35;9.40;59.20
4312;DHT22;2169;49.086;9.284;2024-03-08T11:42:04;9.40;59.00
4312;DHT22;2169;49.086;9.284;2024-03-08T11:44:31;9.50;59.00
4312;DHT22;2169;49.086;9.284;2024-03-08T11:46:58;9.60;59.00
4312;DHT22;2169;49.086;9.284;2024-03-08T11:49:25;9.60;58.80
4312;DHT22;2169;49.086;9.284;2024-03-08T11:51:54;9.70;58.70
4312;DHT22;2169;49.086;9.284;2024-03-08T11:54:22;9.70;58.60
4312;DHT22;2169;49.086;9.284;2024-03-08T11:56:51;9.70;58.50
4312;DHT22;2169;49.086;9.284;2024-03-08T11:59:19;9.80;58.50
4312;DHT22;2169;49.086;9.284;2024-03-08T12:02:00;9.90;58.40
4312;DHT22;2169;49.086;9.284;2024-03-08T12:04:29;9.90;58.30
4312;DHT22;2169;49.086;9.284;2024-03-08T12:06:59;10.00;57.30
4312;DHT22;2169;49.086;9.284;2024-03-08T12:09:26;10.10;57.50
4312;DHT22;2169;49.086;9.284;2024-03-08T12:11:53;10.10;56.50
4312;DHT22;2169;49.086;9.284;2024-03-08T12:14:20;10.10;56.40
4312;DHT22;2169;49.086;9.284;2024-03-08T12:16:48;10.20;56.40
4312;DHT22;2169;49.086;9.284;2024-03-08T12:19:17;10.20;56.30
4312;DHT22;2169;49.086;9.284;2024-03-08T12:21:44;10.30;56.10
4312;DHT22;2169;49.086;9.284;2024-03-08T12:24:29;10.30;56.00
4312;DHT22;2169;49.086;9.284;2024-03-08T12:27:20;10.40;56.00
4312;DHT22;2169;49.086;9.284;2024-03-08T12:29:59;10.40;56.00
4312;DHT22;2169;49.086;9.284;2024-03-08T12:32:37;10.50;56.00
4312;DHT22;2169;49.086;9.284;2024-03-08T12:35:08;10.50;56.00
4312;DHT22;2169;49.086;9.284;2024-03-08T12:37:37;10.60;55.90
4312;DHT22;2169;49.086;9.284;2024-03-08T12:40:09;10.70;55.90
4312;DHT22;2169;49.086;9.284;2024-03-08T12:42:36;10.80;55.90
4312;DHT22;2169;49.086;9.284;2024-03-08T12:45:04;10.80;55.80
4312;DHT22;2169;49.086;9.284;2024-03-08T12:47:35;10.90;55.70
4312;DHT22;2169;49.086;9.284;2024-03-08T12:50:04;11.00;55.60
4312;DHT22;2169;49.086;9.284;2024-03-08T12:52:34;11.00;55.50
4312;DHT22;2169;49.086;9.284;2024-03-08T12:55:02;11.10;55.40
4312;DHT22;2169;49.086;9.284;2024-03-08T12:57:34;11.10;55.30
4312;DHT22;2169;49.086;9.284;2024-03-08T13:00:03;11.20;55.20
4312;DHT22;2169;49.086;9.284;2024-03-08T13:02:32;11.30;55.20
4312;DHT22;2169;49.086;9.284;2024-03-08T13:04:59;11.30;55.10
4312;DHT22;2169;49.086;9.284;2024-03-08T13:07:26;11.40;55.10
4312;DHT22;2169;49.086;9.284;2024-03-08T13:09:53;11.40;54.90
4312;DHT22;2169;49.086;9.284;2024-03-08T13:12:21;11.50;54.80
4312;DHT22;2169;49.086;9.284;2024-03-08T13:14:50;11.50;54.70
4312;DHT22;2169;49.086;9.284;2024-03-08T13:17:17;11.50;54.50
4312;DHT22;2169;49.086;9.284;2024-03-08T13:19:44;11.60;54.50
4312;DHT22;2169;49.086;9.284;2024-03-08T13:22:11;11.60;54.20
4312;DHT22;2169;49.086;9.284;2024-03-08T13:24:39;11.60;54.00
4312;DHT22;2169;49.086;9.284;2024-03-08T13:27:09;11.70;53.80
4312;DHT22;2169;49.086;9.284;2024-03-08T13:29:46;11.70;53.70
4312;DHT22;2169;49.086;9.284;2024-03-08T13:32:16;11.70;53.60
4312;DHT22;2169;49.086;9.284;2024-03-08T13:34:44;11.70;53.90
4312;DHT22;2169;49.086;9.284;2024-03-08T13:37:13;11.70;53.20
4312;DHT22;2169;49.086;9.284;2024-03-08T13:39:41;11.80;53.20
4312;DHT22;2169;49.086;9.284;2024-03-08T13:42:10;11.80;53.10
4312;DHT22;2169;49.086;9.284;2024-03-08T13:44:39;11.80;53.00
4312;DHT22;2169;49.086;9.284;2024-03-08T13:47:06;11.80;53.10
4312;DHT22;2169;49.086;9.284;2024-03-08T13:49:35;11.90;53.10
4312;DHT22;2169;49.086;9.284;2024-03-08T13:52:02;11.90;53.00
4312;DHT22;2169;49.086;9.284;2024-03-08T13:54:30;11.90;53.10
4312;DHT22;2169;49.086;9.284;2024-03-08T13:56:57;11.90;53.10
4312;DHT22;2169;49.086;9.284;2024-03-08T13:59:24;12.00;52.70
4312;DHT22;2169;49.086;9.284;2024-03-08T14:01:50;12.00;52.50
4312;DHT22;2169;49.086;9.284;2024-03-08T14:04:17;12.00;53.10
4312;DHT22;2169;49.086;9.284;2024-03-08T14:06:46;12.00;52.40
4312;DHT22;2169;49.086;9.284;2024-03-08T14:09:15;12.00;52.40
4312;DHT22;2169;49.086;9.284;2024-03-08T14:11:43;12.00;52.30
4312;DHT22;2169;49.086;9.284;2024-03-08T14:14:10;12.00;52.20
4312;DHT22;2169;49.086;9.284;2024-03-08T14:16:40;12.10;52.10
4312;DHT22;2169;49.086;9.284;2024-03-08T14:19:08;12.10;52.10
4312;DHT22;2169;49.086;9.284;2024-03-08T14:21:36;12.00;52.10
4312;DHT22;2169;49.086;9.284;2024-03-08T14:24:06;12.10;52.10
4312;DHT22;2169;49.086;9.284;2024-03-08T14:26:34;12.10;52.10
4312;DHT22;2169;49.086;9.284;2024-03-08T14:29:04;12.10;52.00
4312;DHT22;2169;49.086;9.284;2024-03-08T14:31:32;12.10;52.00
4312;DHT22;2169;49.086;9.284;2024-03-08T14:33:59;12.10;52.10
4312;DHT22;2169;49.086;9.284;2024-03-08T14:36:26;12.10;52.00
4312;DHT22;2169;49.086;9.284;2024-03-08T14:38:53;12.10;51.80
4312;DHT22;2169;49.086;9.284;2024-03-08T14:41:23;12.10;51.70
4312;DHT22;2169;49.086;9.284;2024-03-08T14:43:50;12.10;51.70
4312;DHT22;2169;49.086;9.284;2024-03-08T14:46:18;12.10;51.70
4312;DHT22;2169;49.086;9.284;2024-03-08T14:48:46;12.10;51.70
4312;DHT22;2169;49.086;9.284;2024-03-08T14:51:13;12.10;51.60
4312;DHT22;2169;49.086;9.284;2024-03-08T14:53:40;12.10;51.50
4312;DHT22;2169;49.086;9.284;2024-03-08T14:56:08;12.10;51.30
4312;DHT22;2169;49.086;9.284;2024-03-08T14:58:36;12.10;51.20
4312;DHT22;2169;49.086;9.284;2024-03-08T15:01:04;12.10;51.20
4312;DHT22;2169;49.086;9.284;2024-03-08T15:03:35;12.10;51.20
4312;DHT22;2169;49.086;9.284;2024-03-08T15:06:04;12.10;51.30
4312;DHT22;2169;49.086;9.284;2024-03-08T15:08:34;12.10;51.30
4312;DHT22;2169;49.086;9.284;2024-03-08T15:11:01;12.10;51.20
4312;DHT22;2169;49.086;9.284;2024-03-08T15:13:28;12.10;51.30
4312;DHT22;2169;49.086;9.284;2024-03-08T15:16:07;12.10;51.30
4312;DHT22;2169;49.086;9.284;2024-03-08T15:18:40;12.10;51.30
4312;DHT22;2169;49.086;9.284;2024-03-08T15:21:12;12.10;51.10
4312;DHT22;2169;49.086;9.284;2024-03-08T15:23:43;12.10;51.20
4312;DHT22;2169;49.086;9.284;2024-03-08T15:26:15;12.10;51.20
4312;DHT22;2169;49.086;9.284;2024-03-08T15:28:42;12.10;51.30
4312;DHT22;2169;49.086;9.284;2024-03-08T15:31:12;12.10;51.30
4312;DHT22;2169;49.086;9.284;2024-03-08T15:33:39;12.10;51.30
4312;DHT22;2169;49.086;9.284;2024-03-08T15:36:10;12.10;51.30
4312;DHT22;2169;49.086;9.284;2024-03-08T15:38:40;12.10;51.20
4312;DHT22;2169;49.086;9.284;2024-03-08T15:41:07;12.10;51.10
4312;DHT22;2169;49.086;9.284;2024-03-08T15:43:35;12.10;51.10
4312;DHT22;2169;49.086;9.284;2024-03-08T15:46:02;12.10;51.00
4312;DHT22;2169;49.086;9.284;2024-03-08T15:48:31;12.10;51.00
4312;DHT22;2169;49.086;9.284;2024-03-08T15:51:01;12.10;51.00
4312;DHT22;2169;49.086;9.284;2024-03-08T15:53:30;12.10;51.10
4312;DHT22;2169;49.086;9.284;2024-03-08T15:55:57;12.10;50.80
4312;DHT22;2169;49.086;9.284;2024-03-08T15:58:25;12.10;50.90
4312;DHT22;2169;49.086;9.284;2024-03-08T16:00:52;12.10;50.90
4312;DHT22;2169;49.086;9.284;2024-03-08T16:03:19;12.10;51.00
4312;DHT22;2169;49.086;9.284;2024-03-08T16:05:48;12.10;51.00
4312;DHT22;2169;49.086;9.284;2024-03-08T16:08:16;12.10;50.90
4312;DHT22;2169;49.086;9.284;2024-03-08T16:10:43;12.10;51.00
4312;DHT22;2169;49.086;9.284;2024-03-08T16:13:14;12.10;51.00
4312;DHT22;2169;49.086;9.284;2024-03-08T16:15:42;12.00;51.00
4312;DHT22;2169;49.086;9.284;2024-03-08T16:18:09;12.10;51.10
4312;DHT22;2169;49.086;9.284;2024-03-08T16:20:37;12.10;51.00
4312;DHT22;2169;49.086;9.284;2024-03-08T16:23:07;12.10;51.00